Time;durP1;ratioP1;P1;durP2;ratioP2;P2;SDS_P1;SDS_P2;PMS_P1;PMS_P2;Temp;Humidity;BMP_temperature;BMP_pressure;BME280_temperature;BME280_humidity;BME280_pressure;Samples;Min_cycle;Max_cycle;Signal;HPM_P1;HPM_P2
2022/08/13 00:00:56;;;;;;;1.97;1.57;;;;;;;21.89;47.74;101078.97;5012773;28;20191;-77
2022/08/13 00:03:22;;;;;;;1.57;1.47;;;;;;;21.75;47.85;101075.28;5016296;28;20226;-77
2022/08/13 00:05:50;;;;;;;1.70;1.10;;;;;;;21.71;48.61;101056.94;5015870;28;20257;-77
2022/08/13 00:08:17;;;;;;;1.23;1.13;;;;;;;21.73;47.37;101068.34;5016045;28;20572;-77
2022/08/13 00:10:43;;;;;;;1.90;1.70;;;;;;;21.71;47.20;101102.13;5016055;28;20272;-77
2022/08/13 00:13:14;;;;;;;2.03;1.60;;;;;;;21.62;47.67;101103.47;5015967;28;20655;-77
2022/08/13 00:15:44;;;;;;;1.47;1.13;;;;;;;21.64;47.34;101103.41;5015795;28;20206;-77
2022/08/13 00:18:14;;;;;;;4.37;1.73;;;;;;;21.60;47.44;101108.00;5016162;28;20230;-77
2022/08/13 00:20:43;;;;;;;1.50;1.40;;;;;;;21.47;48.63;101086.59;5016147;28;20206;-77
2022/08/13 00:23:13;;;;;;;1.43;1.33;;;;;;;21.36;49.03;101060.56;5016005;28;20573;-77
2022/08/13 00:25:41;;;;;;;1.20;1.10;;;;;;;21.20;49.10;101052.56;5015616;28;20206;-77
2022/08/13 00:28:07;;;;;;;1.47;1.30;;;;;;;21.07;49.37;101045.31;5015956;28;20273;-77
2022/08/13 00:30:36;;;;;;;2.67;1.40;;;;;;;21.09;49.66;101027.53;5016086;28;20211;-77
2022/08/13 00:33:08;;;;;;;1.30;1.30;;;;;;;20.95;49.95;101023.81;5015944;28;20223;-77
2022/08/13 00:35:36;;;;;;;1.53;1.30;;;;;;;20.96;49.73;101016.72;5015516;28;20691;-77
2022/08/13 00:38:05;;;;;;;4.53;1.70;;;;;;;20.97;50.13;101011.34;5015705;28;20231;-77
2022/08/13 00:40:31;;;;;;;4.23;1.90;;;;;;;20.96;50.27;101006.94;5015290;28;20230;-77
2022/08/13 00:43:02;;;;;;;4.47;1.40;;;;;;;20.99;49.74;100998.84;5015547;28;20230;-77
2022/08/13 00:45:30;;;;;;;2.90;1.20;;;;;;;21.02;50.04;101021.69;5015737;28;20253;-77
2022/08/13 00:50:42;;;;;;;1.57;1.30;;;;;;;20.93;50.28;101008.91;5015274;28;20210;-77
2022/08/13 00:53:18;;;;;;;1.73;1.50;;;;;;;20.94;50.28;101006.16;5014689;28;20755;-77
2022/08/13 00:55:47;;;;;;;1.33;1.20;;;;;;;20.90;50.57;101003.78;5015280;28;20195;-77
2022/08/13 00:58:16;;;;;;;1.80;1.33;;;;;;;20.83;50.59;100995.25;5015192;28;20230;-77
2022/08/13 01:00:46;;;;;;;1.30;1.20;;;;;;;20.84;50.47;100983.72;5015404;28;20623;-77
2022/08/13 01:03:13;;;;;;;1.50;1.40;;;;;;;20.81;50.66;100978.56;5015581;28;20599;-77
2022/08/13 01:05:43;;;;;;;1.93;1.50;;;;;;;20.79;50.67;100977.78;5014374;28;20264;-77
2022/08/13 01:08:10;;;;;;;1.30;1.30;;;;;;;20.71;51.38;100970.22;5015112;28;20294;-77
2022/08/13 01:10:37;;;;;;;1.57;1.30;;;;;;;20.62;51.19;100965.44;5014929;28;22070;-77
2022/08/13 01:13:09;;;;;;;2.37;1.30;;;;;;;20.66;50.91;100958.19;5010643;28;20759;-77
2022/08/13 01:15:36;;;;;;;1.50;1.40;;;;;;;20.73;49.50;100989.59;5013994;28;20204;-77
2022/08/13 01:18:03;;;;;;;3.00;1.50;;;;;;;20.78;49.60;101014.09;5014168;28;20696;-78
2022/08/13 01:20:32;;;;;;;1.50;1.40;;;;;;;20.72;50.44;101013.56;5014335;28;20205;-77
2022/08/13 01:23:01;;;;;;;2.67;1.60;;;;;;;20.61;50.99;100984.91;5014671;28;20784;-77
2022/08/13 01:25:30;;;;;;;1.40;1.30;;;;;;;20.57;50.78;100983.34;5014011;28;20199;-77
2022/08/13 01:27:56;;;;;;;2.60;1.50;;;;;;;20.66;50.27;100993.50;5014046;28;20199;-77
2022/08/13 01:30:24;;;;;;;2.10;1.40;;;;;;;20.54;47.72;101053.31;5014130;28;20191;-77
2022/08/13 01:32:51;;;;;;;3.97;1.43;;;;;;;20.13;48.38;101100.44;5014205;28;20231;-77
2022/08/13 01:35:20;;;;;;;1.30;1.27;;;;;;;20.24;49.01;101077.78;5013644;28;20223;-77
2022/08/13 01:37:53;;;;;;;1.30;1.20;;;;;;;20.36;49.48;101065.72;5014232;28;20369;-77
2022/08/13 01:40:21;;;;;;;1.37;1.27;;;;;;;20.38;50.59;101020.56;5014046;28;20743;-77
2022/08/13 01:42:48;;;;;;;1.40;1.27;;;;;;;20.33;50.59;101004.03;5014064;28;20226;-77
2022/08/13 01:45:15;;;;;;;7.50;1.40;;;;;;;20.29;50.99;100995.34;5013794;28;20198;-77
2022/08/13 01:50:30;;;;;;;2.50;1.60;;;;;;;20.38;49.50;101024.06;5013051;28;20277;-77
2022/08/13 01:53:01;;;;;;;1.43;1.33;;;;;;;20.42;49.10;101048.66;5012020;28;20226;-77
2022/08/13 01:55:37;;;;;;;2.43;1.40;;;;;;;20.40;50.01;101048.72;5013541;28;20195;-77
2022/08/13 01:58:05;;;;;;;1.97;1.37;;;;;;;20.29;50.50;101015.72;5012030;28;20582;-77
2022/08/13 02:00:32;;;;;;;3.33;1.30;;;;;;;20.20;50.79;101009.09;5013803;28;20199;-76
2022/08/13 02:02:59;;;;;;;6.53;1.83;;;;;;;20.24;51.02;101002.72;5013261;28;20222;-77
2022/08/13 02:05:26;;;;;;;1.47;1.30;;;;;;;20.11;51.28;100989.19;5013397;28;20221;-77
2022/08/13 02:07:53;;;;;;;1.63;1.20;;;;;;;20.09;51.87;100969.00;5013794;28;20207;-76
2022/08/13 02:10:21;;;;;;;1.47;1.30;;;;;;;20.00;51.73;100963.25;5013860;28;20264;-77
2022/08/13 02:12:48;;;;;;;2.33;1.40;;;;;;;19.83;52.03;100972.00;5013957;28;20281;-77
2022/08/13 02:15:16;;;;;;;1.23;1.13;;;;;;;19.74;53.00;100950.41;5013405;28;20256;-77
2022/08/13 02:17:42;;;;;;;1.60;1.50;;;;;;;19.69;52.53;100952.41;5013508;28;20211;-77
2022/08/13 02:20:12;;;;;;;3.67;1.77;;;;;;;19.67;53.00;100928.63;5013381;28;20207;-77
2022/08/13 02:22:41;;;;;;;1.60;1.50;;;;;;;19.63;53.21;100917.34;5013485;28;20325;-77
2022/08/13 02:25:08;;;;;;;1.40;1.30;;;;;;;19.75;52.65;100926.50;5013009;28;20340;-77
2022/08/13 02:27:35;;;;;;;1.57;1.47;;;;;;;19.62;53.21;100947.41;5013909;28;20217;-77
2022/08/13 02:30:05;;;;;;;3.10;1.60;;;;;;;19.54;53.46;100933.66;5013932;28;20231;-77
2022/08/13 02:32:33;;;;;;;1.40;1.30;;;;;;;19.51;53.85;100928.53;5013554;28;20231;-77
2022/08/13 02:34:59;;;;;;;5.03;1.50;;;;;;;19.44;53.13;100927.97;5012632;28;20207;-77
2022/08/13 02:37:26;;;;;;;1.60;1.50;;;;;;;19.40;53.93;100925.53;5013321;28;20620;-77
2022/08/13 02:39:53;;;;;;;5.33;1.60;;;;;;;19.36;53.73;100922.16;5013000;28;20250;-77
2022/08/13 02:42:20;;;;;;;1.80;1.70;;;;;;;19.28;54.16;100912.88;5013171;28;20720;-77
2022/08/13 02:44:48;;;;;;;1.47;1.37;;;;;;;19.23;54.35;100915.75;5013003;28;20639;-77
2022/08/13 02:47:18;;;;;;;1.40;1.30;;;;;;;19.29;53.63;100898.72;5012973;28;20677;-77
2022/08/13 02:49:48;;;;;;;1.70;1.60;;;;;;;19.40;56.63;100830.22;5012858;28;20203;-77
2022/08/13 02:52:15;;;;;;;3.80;1.33;;;;;;;19.28;53.98;100863.44;5013176;28;20241;-77
2022/08/13 02:54:43;;;;;;;1.20;1.20;;;;;;;19.29;53.87;100891.66;5012874;28;20581;-77
2022/08/13 02:57:10;;;;;;;2.63;1.40;;;;;;;19.30;55.43;100856.28;5012613;28;20673;-77
2022/08/13 02:59:37;;;;;;;1.50;1.37;;;;;;;19.19;54.23;100871.84;5012873;28;20233;-77
2022/08/13 03:02:06;;;;;;;1.40;1.23;;;;;;;19.10;54.90;100862.53;5013014;28;20230;-77
2022/08/13 03:04:35;;;;;;;1.47;1.37;;;;;;;18.99;55.14;100857.78;5012851;28;20261;-77
2022/08/13 03:07:03;;;;;;;2.03;1.67;;;;;;;18.96;55.13;100838.53;5013042;28;20207;-77
2022/08/13 03:09:30;;;;;;;1.80;1.70;;;;;;;18.93;55.76;100847.47;5012908;28;20261;-77
2022/08/13 03:12:00;;;;;;;1.43;1.33;;;;;;;18.87;55.66;100844.25;5012908;28;20206;-77
2022/08/13 03:14:29;;;;;;;1.57;1.47;;;;;;;18.85;56.08;100826.69;5012984;28;20207;-77
2022/08/13 03:16:56;;;;;;;1.57;1.47;;;;;;;18.93;55.57;100834.25;5012591;28;20203;-78
2022/08/13 03:19:23;;;;;;;2.20;1.40;;;;;;;18.91;56.16;100830.81;5012623;28;20231;-77
2022/08/13 03:21:51;;;;;;;1.73;1.60;;;;;;;18.88;56.48;100820.38;5012692;28;20211;-77
2022/08/13 03:24:21;;;;;;;1.70;1.60;;;;;;;18.95;55.82;100829.75;5012702;28;20206;-76
2022/08/13 03:26:47;;;;;;;1.93;1.50;;;;;;;18.95;55.64;100827.09;4992776;28;20230;-77
2022/08/13 03:29:18;;;;;;;7.33;1.60;;;;;;;18.86;56.71;100824.88;4993020;28;20207;-77
2022/08/13 03:31:46;;;;;;;1.70;1.40;;;;;;;18.80;58.90;100772.28;4992312;28;20681;-77
2022/08/13 03:34:13;;;;;;;2.30;1.60;;;;;;;18.78;57.09;100760.88;4992966;28;20262;-77
2022/08/13 03:36:39;;;;;;;1.80;1.70;;;;;;;18.76;57.55;100770.69;4993536;28;20674;-77
2022/08/13 03:39:07;;;;;;;2.47;1.27;;;;;;;18.76;56.97;100787.41;4996601;28;20231;-77
2022/08/13 03:41:33;;;;;;;3.33;1.50;;;;;;;18.89;57.72;100766.56;4996814;28;20211;-77
2022/08/13 03:44:02;;;;;;;1.90;1.80;;;;;;;18.85;57.01;100799.38;4997130;28;20238;-76
2022/08/13 03:46:28;;;;;;;1.50;1.40;;;;;;;18.90;56.40;100794.72;4996313;28;20246;-77
2022/08/13 03:48:55;;;;;;;1.83;1.60;;;;;;;18.75;57.13;100803.34;4996471;28;20670;-77
2022/08/13 03:51:22;;;;;;;3.33;2.10;;;;;;;18.87;56.26;100809.88;4996360;28;20224;-77
2022/08/13 03:53:50;;;;;;;2.33;2.00;;;;;;;18.82;57.08;100810.09;5016057;28;20223;-77
2022/08/13 03:56:18;;;;;;;2.20;1.87;;;;;;;18.71;57.41;100799.13;5015777;28;20213;-77
2022/08/13 03:58:46;;;;;;;1.87;1.57;;;;;;;18.60;57.83;100783.78;5016209;28;20714;-77
2022/08/13 04:01:13;;;;;;;3.37;2.20;;;;;;;18.65;57.59;100777.34;5016143;28;20207;-77
2022/08/13 04:03:41;;;;;;;2.10;1.80;;;;;;;18.72;57.55;100758.53;5015763;28;20727;-77
2022/08/13 04:06:12;;;;;;;1.80;1.70;;;;;;;18.64;57.61;100783.53;5015476;28;20684;-77
2022/08/13 04:08:39;;;;;;;2.30;2.10;;;;;;;18.60;57.68;100778.47;5015817;28;20649;-77
2022/08/13 04:11:08;;;;;;;3.20;1.97;;;;;;;18.48;58.29;100765.84;5015731;28;20205;-77
2022/08/13 04:13:37;;;;;;;3.57;2.00;;;;;;;18.53;56.99;100775.28;5015841;28;20231;-77
2022/08/13 04:16:07;;;;;;;5.57;2.60;;;;;;;18.53;57.98;100772.63;5015572;28;20203;-77
2022/08/13 04:18:35;;;;;;;3.20;1.80;;;;;;;18.51;57.46;100777.09;5015670;28;20227;-77
2022/08/13 04:21:04;;;;;;;7.27;2.33;;;;;;;18.52;57.37;100793.84;5015209;28;20261;-78
2022/08/13 04:23:33;;;;;;;1.63;1.53;;;;;;;18.46;56.99;100802.91;5014622;28;20314;-78
2022/08/13 04:25:59;;;;;;;3.53;3.03;;;;;;;18.40;57.01;100814.63;5015148;28;20199;-78
2022/08/13 04:28:26;;;;;;;3.60;2.93;;;;;;;18.32;57.58;100818.56;5015355;28;20207;-78
2022/08/13 04:30:54;;;;;;;2.10;2.00;;;;;;;18.26;58.28;100791.47;5015345;28;20264;-78
2022/08/13 04:33:20;;;;;;;2.17;1.97;;;;;;;18.20;58.40;100778.53;5015005;28;20277;-78
2022/08/13 04:35:47;;;;;;;2.10;2.00;;;;;;;18.24;58.76;100758.13;5014663;28;20657;-78
2022/08/13 04:38:14;;;;;;;3.00;2.70;;;;;;;18.25;58.09;100770.38;5014795;28;20661;-78
2022/08/13 04:40:42;;;;;;;5.50;2.90;;;;;;;18.18;59.37;100759.25;5015096;28;20195;-77
2022/08/13 04:43:11;;;;;;;2.00;1.90;;;;;;;18.21;59.34;100745.88;5014866;28;20235;-78
2022/08/13 04:45:38;;;;;;;3.87;2.40;;;;;;;18.20;59.73;100735.41;5014684;28;20620;-78
2022/08/13 04:48:09;;;;;;;2.27;1.90;;;;;;;18.20;59.60;100727.47;5014857;28;20283;-78
2022/08/13 04:50:37;;;;;;;1.90;1.80;;;;;;;18.31;58.74;100741.03;5014217;28;20207;-78
2022/08/13 04:53:06;;;;;;;2.00;1.90;;;;;;;18.33;59.56;100747.09;5014704;28;20223;-78
2022/08/13 04:55:33;;;;;;;1.80;1.70;;;;;;;18.26;58.74;100765.03;5014287;28;20202;-78
2022/08/13 04:58:00;;;;;;;2.00;1.80;;;;;;;18.32;59.86;100755.97;5014581;28;20210;-78
2022/08/13 05:00:31;;;;;;;2.40;2.30;;;;;;;18.35;60.13;100729.38;5014791;28;20277;-77
2022/08/13 05:03:06;;;;;;;2.80;1.70;;;;;;;18.44;59.64;100731.59;5014314;28;20252;-78
2022/08/13 05:05:35;;;;;;;2.00;1.90;;;;;;;18.47;58.58;100751.75;5013969;28;20711;-78
2022/08/13 05:08:02;;;;;;;2.10;1.63;;;;;;;18.47;58.25;100783.47;5014663;28;20237;-77
2022/08/13 05:10:30;;;;;;;2.00;1.90;;;;;;;18.26;58.32;100801.19;5014513;28;20203;-77
2022/08/13 05:12:57;;;;;;;3.97;2.70;;;;;;;17.85;59.22;100782.75;5014184;28;20713;-77
2022/08/13 05:15:24;;;;;;;2.30;2.20;;;;;;;17.71;60.19;100746.34;5013966;28;20202;-78
2022/08/13 05:17:51;;;;;;;2.17;2.07;;;;;;;17.97;61.00;100694.19;5014307;28;20211;-79
2022/08/13 05:20:17;;;;;;;3.10;1.93;;;;;;;18.19;62.58;100671.09;5013781;28;20711;-78
2022/08/13 05:22:45;;;;;;;2.33;2.13;;;;;;;17.98;59.92;100707.31;5013877;28;20594;-78
2022/08/13 05:25:14;;;;;;;2.30;2.10;;;;;;;17.66;60.82;100721.94;5013737;28;20253;-77
2022/08/13 05:27:41;;;;;;;2.00;1.80;;;;;;;17.84;62.10;100683.31;5013825;28;20298;-78
2022/08/13 05:30:09;;;;;;;3.27;1.97;;;;;;;17.97;61.58;100686.25;5013720;28;20618;-78
2022/08/13 05:32:38;;;;;;;2.60;2.07;;;;;;;18.14;62.04;100661.72;5014021;28;20281;-78
2022/08/13 05:35:05;;;;;;;3.10;2.30;;;;;;;18.24;61.98;100677.03;5013529;28;20199;-77
2022/08/13 05:37:32;;;;;;;1.73;1.60;;;;;;;18.37;61.31;100673.81;5013914;28;20210;-77
2022/08/13 05:39:59;;;;;;;3.30;1.73;;;;;;;18.54;62.68;100644.78;5013551;28;20231;-77
2022/08/13 05:42:26;;;;;;;1.93;1.70;;;;;;;18.41;58.94;100738.81;5013813;28;20226;-78
2022/08/13 05:44:55;;;;;;;2.37;2.13;;;;;;;18.42;58.81;100773.13;5013450;28;20238;-77
2022/08/13 05:47:21;;;;;;;3.13;1.80;;;;;;;18.51;59.06;100769.19;5013681;28;20257;-77
2022/08/13 05:49:48;;;;;;;3.13;2.03;;;;;;;18.49;58.27;100792.19;5013472;28;20203;-77
2022/08/13 05:52:14;;;;;;;3.13;2.40;;;;;;;18.20;59.39;100796.19;5013585;28;20238;-77
2022/08/13 05:54:41;;;;;;;2.87;2.57;;;;;;;17.97;59.66;100779.56;5013309;28;20672;-77
2022/08/13 05:57:09;;;;;;;3.70;2.17;;;;;;;17.99;59.07;100774.22;5013574;28;20206;-77
2022/08/13 06:05:04;;;;;;;2.20;2.10;;;;;;;18.14;60.21;100760.31;5012913;28;20309;-76
2022/08/13 06:07:31;;;;;;;2.43;2.10;;;;;;;18.36;60.71;100723.19;5013081;28;20754;-76
2022/08/13 06:09:57;;;;;;;2.97;1.93;;;;;;;18.61;62.69;100663.84;5013526;28;20203;-75
2022/08/13 06:12:25;;;;;;;2.30;1.83;;;;;;;18.80;61.86;100672.63;5013216;28;20231;-75
2022/08/13 06:14:56;;;;;;;5.43;2.87;;;;;;;18.97;60.92;100698.25;5013240;28;20703;-76
2022/08/13 06:17:24;;;;;;;1.93;1.70;;;;;;;19.09;61.29;100733.81;5013294;28;20206;-74
2022/08/13 06:19:51;;;;;;;1.93;1.73;;;;;;;19.12;57.78;100741.59;5013199;28;20265;-75
2022/08/13 06:22:20;;;;;;;2.63;2.43;;;;;;;18.98;57.34;100826.94;5012792;28;20226;-75
2022/08/13 06:24:47;;;;;;;3.30;2.90;;;;;;;19.02;57.67;100848.81;5004806;28;20199;-75
2022/08/13 06:27:13;;;;;;;4.10;2.30;;;;;;;19.13;56.56;100843.03;5012918;28;20210;-75
2022/08/13 06:29:43;;;;;;;2.23;1.93;;;;;;;19.24;57.57;100857.44;5013110;28;20211;-75
2022/08/13 06:32:11;;;;;;;2.10;2.00;;;;;;;19.41;59.37;100808.97;5012783;28;20231;-75
2022/08/13 06:34:38;;;;;;;3.17;2.23;;;;;;;19.52;58.21;100824.31;5003531;28;20196;-75
2022/08/13 06:37:05;;;;;;;2.60;2.37;;;;;;;19.65;57.04;100838.66;5006647;28;20209;-75
2022/08/13 06:39:33;;;;;;;1.93;1.83;;;;;;;19.77;56.51;100882.25;5012554;28;20227;-75
2022/08/13 06:42:02;;;;;;;2.63;2.43;;;;;;;19.83;56.20;100889.88;5011892;28;20214;-75
2022/08/13 06:44:31;;;;;;;2.40;2.20;;;;;;;19.91;55.21;100920.44;5011259;28;20198;-75
2022/08/13 06:47:03;;;;;;;5.87;2.70;;;;;;;20.01;54.78;100942.88;5009306;28;20633;-75
2022/08/13 06:49:31;;;;;;;3.40;2.97;;;;;;;20.02;55.58;100944.63;5011859;28;20203;-75
2022/08/13 06:51:58;;;;;;;2.50;2.30;;;;;;;20.12;55.28;100937.91;5012217;28;20199;-75
2022/08/13 06:54:25;;;;;;;4.43;2.40;;;;;;;20.09;55.03;100940.69;5011883;28;20218;-74
2022/08/13 06:56:53;;;;;;;3.40;2.80;;;;;;;20.15;54.96;100944.84;5011591;28;20205;-75
2022/08/13 06:59:20;;;;;;;2.33;2.23;;;;;;;20.20;55.27;100943.69;5008716;28;20223;-75
2022/08/13 07:01:47;;;;;;;2.50;2.30;;;;;;;20.27;54.93;100938.91;5011960;28;20213;-75
2022/08/13 07:04:19;;;;;;;2.60;2.40;;;;;;;20.38;55.15;100944.53;5012105;28;20204;-75
2022/08/13 07:06:47;;;;;;;2.63;2.43;;;;;;;20.43;54.77;100950.44;5011375;28;20194;-75
2022/08/13 07:09:14;;;;;;;2.40;2.20;;;;;;;20.51;54.36;100965.09;5012154;28;20201;-75
2022/08/13 07:11:44;;;;;;;2.50;2.23;;;;;;;20.52;53.63;100980.94;5010644;28;20226;-74
2022/08/13 07:14:11;;;;;;;3.00;2.37;;;;;;;20.57;53.23;100989.53;5011430;28;20215;-75
2022/08/13 07:16:38;;;;;;;3.83;2.50;;;;;;;20.65;54.57;100975.88;5011454;28;20241;-74
2022/08/13 07:19:05;;;;;;;2.27;2.10;;;;;;;20.74;53.53;100990.47;5011695;28;20681;-74
2022/08/13 07:21:33;;;;;;;2.20;2.10;;;;;;;20.79;52.97;101017.59;5012412;28;20736;-75
2022/08/13 07:24:00;;;;;;;2.67;2.47;;;;;;;20.82;52.61;101031.56;5011406;28;20783;-74
2022/08/13 07:26:29;;;;;;;2.70;2.50;;;;;;;20.89;53.78;101004.69;5011624;28;20300;-74
2022/08/13 07:28:56;;;;;;;5.07;2.50;;;;;;;20.98;52.85;101017.50;5006383;28;20205;-75
2022/08/13 07:31:25;;;;;;;2.13;2.03;;;;;;;21.09;53.09;101022.22;5011850;28;20245;-75
2022/08/13 07:33:53;;;;;;;2.77;2.43;;;;;;;21.16;52.94;101029.75;5011827;28;20783;-75
2022/08/13 07:36:21;;;;;;;2.37;2.20;;;;;;;21.23;52.86;101041.78;5013941;28;20211;-75
2022/08/13 07:38:49;;;;;;;2.90;2.30;;;;;;;21.32;53.85;101003.22;5012247;28;20291;-75
2022/08/13 07:41:15;;;;;;;3.37;2.40;;;;;;;21.41;53.85;100992.13;5014369;28;20272;-74
2022/08/13 07:43:44;;;;;;;6.03;2.57;;;;;;;21.51;53.85;100983.69;5016981;28;20712;-74
2022/08/13 07:46:12;;;;;;;3.10;2.80;;;;;;;21.57;53.15;100997.47;5016575;28;20242;-75
2022/08/13 07:48:41;;;;;;;3.93;2.50;;;;;;;21.61;53.49;101011.44;5016275;28;20210;-75
2022/08/13 07:51:10;;;;;;;5.93;2.93;;;;;;;21.62;54.00;100989.22;5019527;28;20210;-75
2022/08/13 07:53:37;;;;;;;3.83;2.53;;;;;;;21.69;52.97;101003.88;5013484;28;20229;-75
2022/08/13 07:56:06;;;;;;;3.70;2.57;;;;;;;21.80;52.82;101029.84;5016996;28;20234;-74
2022/08/13 07:58:34;;;;;;;4.00;2.60;;;;;;;21.87;52.97;101033.03;5018729;28;20207;-75
2022/08/13 08:01:01;;;;;;;2.77;2.57;;;;;;;21.87;53.27;101022.41;5016445;28;20234;-75
2022/08/13 08:03:32;;;;;;;4.07;2.57;;;;;;;21.93;52.82;101016.72;5018862;28;20229;-75
2022/08/13 08:06:00;;;;;;;2.90;2.70;;;;;;;22.05;52.85;101018.66;5019176;28;20333;-75
2022/08/13 08:08:27;;;;;;;3.17;2.70;;;;;;;22.16;51.42;101041.97;5017783;28;20324;-74
2022/08/13 08:10:54;;;;;;;4.40;3.10;;;;;;;22.25;51.38;101083.19;5017462;28;20202;-75
2022/08/13 08:13:21;;;;;;;3.50;2.70;;;;;;;22.31;51.30;101090.81;5019300;28;20245;-74
2022/08/13 08:15:48;;;;;;;3.10;2.90;;;;;;;22.38;50.96;101082.38;5018394;28;20219;-75
2022/08/13 08:18:15;;;;;;;3.03;2.80;;;;;;;22.45;51.43;101090.84;5017882;28;20260;-75
2022/08/13 08:20:42;;;;;;;4.00;3.27;;;;;;;22.51;51.60;101076.34;5016787;28;20351;-75
2022/08/13 08:23:10;;;;;;;6.93;3.20;;;;;;;22.60;50.73;101079.31;5020784;28;20234;-75
2022/08/13 08:25:37;;;;;;;3.40;3.00;;;;;;;22.67;51.03;101090.44;5020558;28;20236;-75
2022/08/13 08:28:04;;;;;;;3.53;3.07;;;;;;;22.81;50.70;101092.28;5018738;28;20199;-75
2022/08/13 08:30:33;;;;;;;3.70;3.40;;;;;;;22.89;50.50;101105.13;5012516;28;20211;-75
2022/08/13 08:32:59;;;;;;;4.10;3.30;;;;;;;22.93;50.84;101088.91;5023206;28;20218;-76
2022/08/13 08:35:25;;;;;;;3.80;3.50;;;;;;;23.05;50.68;101105.94;5021684;28;20265;-75
2022/08/13 08:43:28;;;;;;;5.70;4.53;;;;;;;23.40;49.95;101117.09;5022625;28;20237;-75
2022/08/13 08:45:56;;;;;;;5.60;4.73;;;;;;;23.49;49.53;101145.00;5018192;28;20206;-75
2022/08/13 08:48:30;;;;;;;9.50;4.93;;;;;;;23.54;50.11;101142.91;5021120;28;20668;-75
2022/08/13 08:50:58;;;;;;;5.20;4.70;;;;;;;23.60;50.32;101118.53;5018381;28;20661;-75
2022/08/13 08:53:25;;;;;;;6.17;5.00;;;;;;;23.69;49.74;101127.78;5013461;28;20278;-75
2022/08/13 08:55:53;;;;;;;6.63;5.93;;;;;;;23.79;49.43;101128.09;5016496;28;20573;-75
2022/08/13 08:58:20;;;;;;;7.20;5.27;;;;;;;23.89;49.60;101139.88;5018523;28;20226;-75
2022/08/13 09:00:48;;;;;;;6.70;6.03;;;;;;;24.01;51.20;101110.72;5014564;28;20897;-75
2022/08/13 09:03:19;;;;;;;7.13;6.00;;;;;;;24.09;49.42;101117.25;5017247;28;20230;-75
2022/08/13 09:05:46;;;;;;;5.50;5.00;;;;;;;24.18;49.05;101132.66;5022117;28;20218;-75
2022/08/13 09:08:15;;;;;;;5.43;4.93;;;;;;;24.24;48.89;101143.88;5022294;28;20207;-75
2022/08/13 09:10:42;;;;;;;7.57;5.03;;;;;;;24.33;48.93;101132.59;5019286;28;20207;-75
2022/08/13 09:13:12;;;;;;;5.67;5.07;;;;;;;24.44;49.11;101135.44;5027005;28;20569;-75
2022/08/13 09:15:40;;;;;;;4.73;4.33;;;;;;;24.50;47.82;101161.75;5015632;28;20210;-74
2022/08/13 09:18:07;;;;;;;4.37;3.97;;;;;;;24.59;49.33;101141.59;5018090;28;20238;-75
2022/08/13 09:20:35;;;;;;;5.30;3.80;;;;;;;24.67;48.52;101152.59;5017994;28;20229;-75
2022/08/13 09:23:04;;;;;;;4.33;4.03;;;;;;;24.76;47.37;101175.19;5015123;28;20277;-75
2022/08/13 09:25:31;;;;;;;3.63;3.40;;;;;;;24.84;47.53;101190.69;5011697;28;20203;-75
2022/08/13 09:27:58;;;;;;;4.17;3.87;;;;;;;24.93;46.81;101179.38;5013136;28;20727;-75
2022/08/13 09:30:25;;;;;;;3.70;3.40;;;;;;;24.96;48.09;101192.53;5013012;28;20257;-75
2022/08/13 09:32:57;;;;;;;4.60;3.80;;;;;;;25.03;47.97;101148.41;5012852;28;20776;-74
2022/08/13 09:35:25;;;;;;;4.27;3.83;;;;;;;25.14;48.67;101134.31;5012366;28;20229;-75
2022/08/13 09:37:56;;;;;;;4.00;3.63;;;;;;;25.25;47.78;101128.25;5013242;28;20210;-75
2022/08/13 09:40:25;;;;;;;5.30;4.90;;;;;;;25.37;47.31;101167.47;5013097;28;20223;-75
2022/08/13 09:42:57;;;;;;;4.20;3.90;;;;;;;25.42;47.25;101170.69;5012707;28;20245;-75
2022/08/13 09:45:25;;;;;;;4.60;4.33;;;;;;;25.52;47.38;101193.13;5013057;28;20257;-75
2022/08/13 09:47:51;;;;;;;6.27;4.43;;;;;;;25.60;47.46;101171.22;5013241;28;20203;-75
2022/08/13 09:50:18;;;;;;;4.37;3.97;;;;;;;25.66;46.98;101169.94;5013098;28;20294;-75
2022/08/13 09:52:44;;;;;;;4.30;4.00;;;;;;;25.76;47.47;101189.69;5013074;28;20273;-75
2022/08/13 09:55:12;;;;;;;4.77;4.10;;;;;;;25.86;46.43;101176.53;5012800;28;20222;-75
2022/08/13 09:57:48;;;;;;;6.47;4.00;;;;;;;25.92;46.45;101185.00;5013009;28;20735;-75
2022/08/13 10:00:22;;;;;;;4.73;4.33;;;;;;;26.00;46.27;101189.78;5013589;28;20482;-75
2022/08/13 10:02:50;;;;;;;4.47;4.17;;;;;;;26.07;46.17;101200.94;5013365;28;20297;-75
2022/08/13 10:05:18;;;;;;;4.87;4.53;;;;;;;26.16;45.98;101210.94;5012938;28;20253;-75
2022/08/13 10:07:44;;;;;;;5.43;5.03;;;;;;;26.23;45.75;101211.38;5013076;28;20241;-75
2022/08/13 10:10:12;;;;;;;6.20;5.80;;;;;;;26.33;45.83;101199.88;5013369;28;20202;-75
2022/08/13 10:12:39;;;;;;;4.90;4.60;;;;;;;26.41;45.56;101206.50;5013223;28;20280;-75
2022/08/13 10:15:08;;;;;;;5.70;5.30;;;;;;;26.46;45.51;101205.19;5012762;28;20211;-75
2022/08/13 10:17:45;;;;;;;6.10;5.70;;;;;;;26.56;44.94;101226.78;5012959;28;20776;-74
2022/08/13 10:20:12;;;;;;;5.33;4.90;;;;;;;26.62;45.39;101222.81;5012840;28;20195;-75
2022/08/13 10:22:38;;;;;;;5.83;5.43;;;;;;;26.69;44.76;101245.50;5013046;28;20227;-75
2022/08/13 10:25:05;;;;;;;5.90;5.53;;;;;;;26.74;44.76;101224.59;5012800;28;20210;-75
2022/08/13 10:27:36;;;;;;;6.00;5.60;;;;;;;26.85;45.33;101205.03;5013038;28;20203;-74
2022/08/13 10:30:04;;;;;;;5.90;5.60;;;;;;;26.92;45.93;101203.59;5012495;28;20203;-75
2022/08/13 10:32:31;;;;;;;5.80;5.40;;;;;;;27.11;44.89;101203.03;5012619;28;20516;-75
2022/08/13 10:35:00;;;;;;;5.67;5.30;;;;;;;27.19;45.13;101219.38;5011554;28;20736;-75
2022/08/13 10:37:28;;;;;;;5.80;5.40;;;;;;;27.32;44.31;101203.25;5011712;28;20253;-75
2022/08/13 10:39:55;;;;;;;6.27;5.90;;;;;;;27.43;43.16;101253.34;5011600;28;20222;-75
2022/08/13 10:42:22;;;;;;;5.30;5.00;;;;;;;27.50;42.87;101276.06;5011554;28;20231;-75
2022/08/13 10:44:52;;;;;;;5.70;5.13;;;;;;;27.51;43.00;101284.00;5011512;28;20688;-75
2022/08/13 10:47:19;;;;;;;5.90;5.53;;;;;;;27.60;42.68;101290.47;5011597;28;20214;-75
2022/08/13 10:49:49;;;;;;;6.00;5.60;;;;;;;27.66;42.06;101306.06;5014639;28;20206;-77
2022/08/13 10:52:17;;;;;;;5.53;5.13;;;;;;;27.67;42.14;101325.69;5018024;28;20219;-75
2022/08/13 10:54:43;;;;;;;5.97;5.57;;;;;;;27.71;42.85;101301.22;5011388;28;20206;-75
2022/08/13 10:57:11;;;;;;;5.60;5.27;;;;;;;27.80;41.94;101261.22;5012169;28;20273;-75
2022/08/13 10:59:38;;;;;;;5.20;4.90;;;;;;;27.84;42.40;101306.47;5012268;28;20309;-75
2022/08/13 11:02:06;;;;;;;5.50;5.00;;;;;;;27.91;42.13;101294.34;5011880;28;20234;-75
2022/08/13 11:04:32;;;;;;;5.93;5.47;;;;;;;28.00;41.58;101298.09;5012552;28;20213;-75
2022/08/13 11:07:00;;;;;;;5.70;4.83;;;;;;;28.09;41.00;101301.91;5012390;28;20233;-75
2022/08/13 11:09:26;;;;;;;5.27;4.90;;;;;;;28.18;41.58;101309.22;5012407;28;20557;-75
2022/08/13 11:11:55;;;;;;;5.47;5.17;;;;;;;28.32;40.99;101321.53;5011145;28;20203;-75
2022/08/13 11:14:21;;;;;;;5.17;4.87;;;;;;;28.46;40.90;101324.00;5011471;28;20206;-75
2022/08/13 11:16:59;;;;;;;5.13;4.82;;;;;;;28.58;40.61;101329.34;4316569;28;10000774;-75
2022/08/13 11:19:29;;;;;;;4.93;4.53;;;;;;;28.72;39.13;101369.38;5008302;28;20657;-75
2022/08/13 11:21:55;;;;;;;5.97;5.50;;;;;;;28.76;39.92;101357.44;5008172;28;20223;-76
2022/08/13 11:24:22;;;;;;;4.97;4.73;;;;;;;28.87;40.38;101345.78;5008625;28;20207;-75
2022/08/13 11:26:49;;;;;;;5.00;4.70;;;;;;;29.00;38.90;101380.56;5007968;28;20210;-75
2022/08/13 11:29:16;;;;;;;4.93;4.53;;;;;;;29.14;39.12;101390.22;5008842;28;20527;-75
2022/08/13 11:31:42;;;;;;;13.77;5.23;;;;;;;29.30;38.21;101426.50;5008648;28;20215;-75
2022/08/13 11:34:09;;;;;;;5.87;5.37;;;;;;;29.46;37.79;101439.53;5008475;28;20230;-75
2022/08/13 11:36:37;;;;;;;5.77;5.37;;;;;;;29.75;37.00;101452.41;5008153;28;20214;-75
2022/08/13 11:39:06;;;;;;;6.00;5.50;;;;;;;30.33;36.44;101445.72;5008374;28;20689;-76
2022/08/13 11:41:32;;;;;;;5.20;5.00;;;;;;;31.45;36.54;101463.63;5009024;28;20231;-76
2022/08/13 11:43:59;;;;;;;6.40;6.00;;;;;;;32.33;33.73;101557.31;5008734;28;20790;-76